Time;durP1;ratioP1;P1;durP2;ratioP2;P2;SDS_P1;SDS_P2;PMS_P1;PMS_P2;Temp;Humidity;BMP_temperature;BMP_pressure;BME280_temperature;BME280_humidity;BME280_pressure;Samples;Min_cycle;Max_cycle;Signal;HPM_P1;HPM_P2
2021/04/11 00:00:48;;;;;;;6.37;3.80;;;;;;;6.66;39.24;101607.02;1788516;79;21135;-51
2021/04/11 00:03:19;;;;;;;8.08;4.10;;;;;;;6.65;39.21;101605.69;1775754;80;21580;-51
2021/04/11 00:05:48;;;;;;;8.50;3.98;;;;;;;6.65;39.28;101606.99;1761477;81;21590;-51
2021/04/11 00:08:16;;;;;;;7.40;3.72;;;;;;;6.48;39.50;101603.98;1766939;80;21627;-51
2021/04/11 00:10:47;;;;;;;8.53;4.45;;;;;;;6.45;39.61;101603.91;1772603;79;21143;-51
2021/04/11 00:13:21;;;;;;;;;;;;;;;6.41;39.66;101612.08;1790609;80;21163;-68
2021/04/11 00:15:51;;;;;;;5.95;4.03;;;;;;;6.37;39.75;101604.59;1792373;79;20141;-68
2021/04/11 00:18:19;;;;;;;8.53;4.47;;;;;;;6.34;39.75;101609.74;1781012;79;21141;-68
2021/04/11 00:20:48;;;;;;;7.55;4.80;;;;;;;6.29;39.83;101608.73;1769707;79;21103;-51
2021/04/11 00:23:17;;;;;;;11.12;5.33;;;;;;;6.26;39.83;101608.66;1792763;79;21111;-68
2021/04/11 00:25:48;;;;;;;14.18;4.95;;;;;;;6.23;39.86;101609.48;1792693;80;21178;-51
2021/04/11 00:28:16;;;;;;;11.10;4.90;;;;;;;6.20;40.03;101613.33;1768525;79;21163;-51
2021/04/11 00:30:44;;;;;;;7.08;4.87;;;;;;;6.18;40.03;101616.76;1781796;80;21138;-51
2021/04/11 00:33:38;;;;;;;7.37;4.60;;;;;;;6.16;40.07;101615.83;1792849;80;21288;-51
2021/04/11 00:36:15;;;;;;;8.70;4.75;;;;;;;6.14;40.14;101616.22;1785679;80;21162;-51
2021/04/11 00:38:43;;;;;;;8.25;4.75;;;;;;;6.12;40.24;101623.13;1776007;80;21345;-51
2021/04/11 00:41:33;;;;;;;7.47;4.37;;;;;;;6.09;40.29;101618.28;1792777;79;21566;-51
2021/04/11 00:44:03;;;;;;;7.70;4.05;;;;;;;6.08;40.39;101624.77;1792737;80;21162;-51
2021/04/11 00:46:52;;;;;;;6.90;4.50;;;;;;;6.03;40.47;101623.75;1768421;80;21163;-51
2021/04/11 00:49:32;;;;;;;8.75;4.22;;;;;;;5.98;40.67;101631.45;1724931;82;21126;-51
2021/04/11 00:52:01;;;;;;;7.62;4.45;;;;;;;5.94;40.85;101634.82;1707430;83;21167;-51
2021/04/11 00:54:28;;;;;;;6.83;4.15;;;;;;;6.22;40.43;101631.65;1684930;83;21157;-67
2021/04/11 00:56:56;;;;;;;10.25;4.70;;;;;;;5.96;40.78;101634.00;1704796;83;21138;-67
2021/04/11 00:59:24;;;;;;;9.43;4.62;;;;;;;5.93;40.78;101635.66;1699190;83;21533;-50
2021/04/11 01:01:54;;;;;;;9.08;5.10;;;;;;;5.84;40.74;101637.61;1736679;82;21128;-67
2021/04/11 01:04:22;;;;;;;11.00;5.62;;;;;;;5.76;40.75;101637.37;1725295;82;21175;-68
2021/04/11 01:06:59;;;;;;;7.65;5.12;;;;;;;5.73;40.77;101644.27;1703294;83;21183;-67
2021/04/11 01:09:33;;;;;;;7.72;4.92;;;;;;;5.66;40.91;101637.55;1736584;82;21182;-61
2021/04/11 01:12:07;;;;;;;7.70;4.62;;;;;;;5.63;41.16;101643.13;1735172;82;21159;-68
2021/04/11 01:14:37;;;;;;;10.45;5.17;;;;;;;5.59;41.41;101636.05;1721551;82;21647;-51
2021/04/11 01:17:16;;;;;;;8.50;5.28;;;;;;;5.57;41.46;101642.95;1721190;83;21134;-50
2021/04/11 01:19:48;;;;;;;8.58;5.25;;;;;;;5.51;41.75;101647.59;1736734;83;21652;-50
2021/04/11 01:22:41;;;;;;;8.48;5.00;;;;;;;5.43;41.89;101642.12;1699946;83;21135;-68
2021/04/11 01:25:17;;;;;;;6.75;4.22;;;;;;;5.35;42.03;101648.44;1713564;83;21619;-50
2021/04/11 01:27:46;;;;;;;8.60;4.50;;;;;;;5.64;41.59;101643.16;1708138;83;21310;-67
2021/04/11 01:30:29;;;;;;;9.40;5.55;;;;;;;5.28;42.16;101650.83;1654653;83;21122;-50
2021/04/11 01:33:03;;;;;;;9.70;4.65;;;;;;;5.21;42.18;101653.25;1725222;82;21158;-68
2021/04/11 01:35:33;;;;;;;10.43;4.92;;;;;;;5.14;42.23;101653.89;1721540;83;21183;-50
2021/04/11 01:38:01;;;;;;;8.90;4.42;;;;;;;5.10;42.37;101645.91;1737052;82;21178;-68
2021/04/11 01:40:44;;;;;;;8.00;5.12;;;;;;;5.06;42.55;101645.84;1749382;82;21159;-68
2021/04/11 01:43:15;;;;;;;7.60;4.60;;;;;;;5.02;42.83;101654.81;1743645;82;21099;-51
2021/04/11 01:45:44;;;;;;;9.63;5.40;;;;;;;4.93;42.89;101652.81;1744391;82;21174;-67
2021/04/11 01:48:15;;;;;;;7.85;5.12;;;;;;;4.89;43.01;101655.72;1754401;82;21200;-51
2021/04/11 01:50:43;;;;;;;9.95;5.97;;;;;;;4.76;43.11;101660.98;1700500;83;21185;-63
2021/04/11 01:53:12;;;;;;;9.30;4.45;;;;;;;4.67;43.47;101659.80;1716777;83;21111;-50
2021/04/11 01:55:41;;;;;;;;;;;;;;;4.60;43.49;101659.59;1712900;83;21120;-50
2021/04/11 01:58:11;;;;;;;7.08;4.22;;;;;;;4.59;43.63;101660.44;1736010;82;20165;-68
2021/04/11 02:00:46;;;;;;;;;;;;;;;4.57;43.56;101659.49;1656671;83;21665;-50
2021/04/11 02:03:16;;;;;;;7.85;4.60;;;;;;;4.55;43.49;101659.86;1701189;82;20420;-51
2021/04/11 02:05:48;;;;;;;8.48;5.20;;;;;;;4.50;43.62;101659.25;1736914;83;21678;-68
2021/04/11 02:08:23;;;;;;;8.55;5.08;;;;;;;4.41;43.52;101655.93;1723828;83;21179;-68
2021/04/11 02:10:54;;;;;;;8.38;5.03;;;;;;;4.30;43.63;101659.45;1721513;82;21175;-51
2021/04/11 02:13:29;;;;;;;8.65;5.22;;;;;;;4.23;43.81;101658.77;1718582;83;21185;-68
2021/04/11 02:16:01;;;;;;;9.33;5.22;;;;;;;4.18;43.87;101661.23;1722955;83;21147;-67
2021/04/11 02:18:33;;;;;;;9.83;5.65;;;;;;;3.97;44.12;101666.17;1684647;83;21775;-50
2021/04/11 02:21:07;;;;;;;9.30;5.53;;;;;;;3.24;45.77;101669.11;1725721;83;21279;-50
2021/04/11 02:23:36;;;;;;;8.70;5.20;;;;;;;3.11;46.31;101662.55;1683600;84;21623;-50
2021/04/11 02:26:08;;;;;;;9.30;5.45;;;;;;;3.07;46.47;101661.95;1712902;83;21119;-68
2021/04/11 02:28:38;;;;;;;11.60;6.17;;;;;;;3.05;46.75;101664.91;1724893;82;21186;-50
2021/04/11 02:31:16;;;;;;;15.43;6.92;;;;;;;3.57;46.01;101665.60;1712722;83;21273;-50
2021/04/11 02:34:02;;;;;;;;;;;;;;;3.91;45.34;101663.34;1727359;82;21169;-50
2021/04/11 02:36:44;;;;;;;10.82;5.72;;;;;;;3.99;45.20;101670.13;1717589;83;20225;-50
2021/04/11 02:39:23;;;;;;;12.88;6.12;;;;;;;3.99;45.24;101666.21;1744912;82;21187;-50
2021/04/11 02:41:52;;;;;;;9.85;5.35;;;;;;;4.00;45.13;101669.29;1719979;83;21138;-50
2021/04/11 02:44:21;;;;;;;9.68;5.58;;;;;;;4.01;45.09;101665.85;1766056;80;21098;-68
2021/04/11 02:46:49;;;;;;;10.85;5.47;;;;;;;4.02;45.05;101665.89;1780042;80;21139;-68
2021/04/11 02:49:21;;;;;;;9.00;5.67;;;;;;;4.05;45.00;101661.22;1756024;81;21158;-67
2021/04/11 02:51:50;;;;;;;10.05;6.20;;;;;;;4.06;44.86;101666.91;1757097;80;21630;-67
2021/04/11 02:54:21;;;;;;;11.08;6.42;;;;;;;4.02;44.80;101663.28;1786519;80;21184;-68
2021/04/11 02:56:50;;;;;;;8.48;5.03;;;;;;;4.01;44.87;101669.33;1766954;79;21175;-50
2021/04/11 02:59:20;;;;;;;10.63;5.42;;;;;;;4.00;44.90;101671.46;1755997;81;21179;-68
2021/04/11 03:01:49;;;;;;;15.00;6.42;;;;;;;4.00;44.83;101668.86;1775012;80;21669;-58
2021/04/11 03:04:21;;;;;;;16.90;6.58;;;;;;;3.99;44.79;101670.13;1760764;80;21264;-68
2021/04/11 03:07:03;;;;;;;11.73;6.03;;;;;;;3.97;44.83;101678.30;1738136;81;21167;-50
2021/04/11 03:09:47;;;;;;;13.22;6.80;;;;;;;3.95;44.91;101683.87;1772780;80;21554;-50
2021/04/11 03:12:17;;;;;;;11.33;6.15;;;;;;;3.93;45.18;101685.13;1763711;80;21107;-50
2021/04/11 03:14:45;;;;;;;13.75;7.25;;;;;;;3.93;45.27;101682.92;1763040;80;21180;-50
2021/04/11 03:17:20;;;;;;;22.05;6.90;;;;;;;3.92;45.24;101678.55;1756340;81;21305;-69
2021/04/11 03:19:55;;;;;;;10.90;6.30;;;;;;;3.91;45.38;101678.07;1759868;80;21284;-50
2021/04/11 03:22:23;;;;;;;11.80;6.05;;;;;;;3.90;45.29;101681.11;1719908;82;21300;-50
2021/04/11 03:24:51;;;;;;;11.70;6.97;;;;;;;3.94;45.15;101684.70;1737278;82;21301;-69
2021/04/11 03:27:31;;;;;;;11.05;5.62;;;;;;;3.92;45.17;101680.75;1756023;82;21183;-69
2021/04/11 03:30:08;;;;;;;12.67;6.90;;;;;;;3.93;45.15;101682.52;1762968;80;21245;-67
2021/04/11 03:32:40;;;;;;;14.33;7.53;;;;;;;3.91;45.33;101687.19;1764667;80;21173;-51
2021/04/11 03:35:10;;;;;;;14.35;6.72;;;;;;;3.90;45.42;101685.41;1787110;79;21116;-50
2021/04/11 03:37:41;;;;;;;23.45;6.85;;;;;;;3.89;45.60;101691.05;1758625;80;21170;-50
2021/04/11 03:40:13;;;;;;;17.05;7.22;;;;;;;3.90;46.35;101696.73;1758035;80;21128;-53
2021/04/11 03:42:45;;;;;;;14.38;6.78;;;;;;;3.93;46.22;101693.34;1762838;80;21163;-51
2021/04/11 03:45:15;;;;;;;16.25;6.58;;;;;;;3.97;45.97;101696.13;1756048;82;21179;-69
2021/04/11 03:47:54;;;;;;;15.32;6.50;;;;;;;4.00;45.79;101698.82;1768398;80;21767;-53
2021/04/11 03:50:35;;;;;;;17.82;6.25;;;;;;;4.04;45.88;101694.63;1778293;80;21146;-69
2021/04/11 03:53:36;;;;;;;17.95;7.08;;;;;;;4.09;45.88;101694.37;1786953;80;21319;-51
2021/04/11 03:56:09;;;;;;;15.75;6.42;;;;;;;4.18;45.96;101698.14;1784917;79;21115;-66
2021/04/11 03:58:51;;;;;;;12.15;6.65;;;;;;;3.55;47.49;101701.50;1781731;80;21163;-52
2021/04/11 04:01:33;;;;;;;17.37;7.00;;;;;;;3.52;47.80;101702.28;1822840;77;22590;-68
2021/04/11 04:04:06;;;;;;;17.57;6.22;;;;;;;3.54;48.17;101708.44;1771780;80;21445;-52
2021/04/11 04:06:35;;;;;;;13.58;5.10;;;;;;;3.62;48.07;101706.12;1769295;80;21138;-69
2021/04/11 04:09:06;;;;;;;14.70;6.12;;;;;;;3.76;48.06;101708.36;1770922;80;21150;-67
2021/04/11 04:11:59;;;;;;;14.10;6.25;;;;;;;3.86;47.93;101708.75;1767202;80;21126;-67
2021/04/11 04:15:29;;;;;;;10.95;6.03;;;;;;;3.94;48.01;101702.94;1771061;80;21137;-68
2021/04/11 04:18:17;;;;;;;17.45;7.50;;;;;;;4.04;48.08;101710.26;1768883;80;21320;-69
2021/04/11 04:21:12;;;;;;;13.95;6.42;;;;;;;4.15;48.08;101715.84;1768254;80;21264;-69
2021/04/11 04:23:53;;;;;;;12.50;5.97;;;;;;;4.25;48.17;101715.74;1757748;80;21167;-66
2021/04/11 04:26:51;;;;;;;16.25;6.33;;;;;;;4.34;48.19;101715.20;1747216;80;21146;-51
2021/04/11 04:29:55;;;;;;;19.60;8.43;;;;;;;4.44;48.23;101710.75;1770428;80;21156;-50
2021/04/11 04:32:52;;;;;;;16.40;7.80;;;;;;;4.55;48.66;101711.14;1738182;81;21154;-50
2021/04/11 04:35:34;;;;;;;16.95;7.40;;;;;;;5.54;46.66;101707.72;1712734;83;21166;-66
2021/04/11 04:38:24;;;;;;;12.55;6.58;;;;;;;5.76;46.30;101709.67;1738526;81;21190;-51
2021/04/11 04:41:26;;;;;;;11.35;6.20;;;;;;;5.92;45.77;101707.06;1729948;81;21288;-51
2021/04/11 04:44:50;;;;;;;14.60;6.87;;;;;;;6.08;46.05;101711.92;1735149;81;21192;-65
2021/04/11 04:47:36;;;;;;;11.55;5.95;;;;;;;6.35;46.36;101712.20;1733291;81;21150;-52
2021/04/11 04:50:29;;;;;;;63.45;9.68;;;;;;;6.61;45.56;101715.03;1728791;83;21154;-68
2021/04/11 04:53:10;;;;;;;12.65;5.35;;;;;;;6.80;45.59;101712.45;1722294;83;21312;-69
2021/04/11 04:55:40;;;;;;;12.80;6.03;;;;;;;7.00;45.33;101703.77;1713517;82;21146;-53
2021/04/11 04:58:13;;;;;;;9.85;4.97;;;;;;;7.21;44.93;101711.24;1736840;81;21146;-53
2021/04/11 05:00:52;;;;;;;9.98;5.45;;;;;;;7.39;44.48;101709.45;1738467;81;21103;-53
2021/04/11 05:03:38;;;;;;;8.63;5.12;;;;;;;7.58;43.88;101708.56;1737191;82;21191;-68
2021/04/11 05:06:16;;;;;;;11.20;4.95;;;;;;;7.74;44.09;101713.25;1723270;82;21175;-52
2021/04/11 05:08:55;;;;;;;10.55;5.30;;;;;;;7.97;43.83;101714.17;1693365;84;21143;-68
2021/04/11 05:11:32;;;;;;;12.00;6.22;;;;;;;8.21;43.54;101708.92;1700966;83;21179;-69
2021/04/11 05:14:05;;;;;;;8.15;5.05;;;;;;;8.45;43.74;101716.81;1759815;80;21126;-70
2021/04/11 05:16:39;;;;;;;9.28;5.42;;;;;;;9.60;40.95;101713.34;1691203;85;21601;-53
2021/04/11 05:19:39;;;;;;;9.20;4.72;;;;;;;9.94;40.62;101709.80;1756101;81;21185;-69
2021/04/11 05:22:31;;;;;;;8.65;5.15;;;;;;;10.33;39.74;101704.97;1827303;77;22127;-50
2021/04/11 05:25:12;;;;;;;7.60;4.62;;;;;;;10.43;39.27;101706.87;1796117;79;21166;-53
2021/04/11 05:27:51;;;;;;;;;;;;;;;10.71;39.42;101708.42;1797379;80;21284;-53
2021/04/11 05:30:49;;;;;;;8.08;4.33;;;;;;;10.88;39.42;101711.64;1771605;80;20143;-53
2021/04/11 05:33:20;;;;;;;7.80;4.78;;;;;;;11.16;38.41;101704.37;1767997;80;21199;-50
2021/04/11 05:35:53;;;;;;;8.98;4.67;;;;;;;10.83;39.34;101704.58;1762018;80;21550;-69
2021/04/11 05:39:03;;;;;;;9.18;5.00;;;;;;;10.76;38.48;101704.08;1778963;80;21292;-68
2021/04/11 05:41:41;;;;;;;14.55;5.80;;;;;;;10.93;38.45;101704.20;1777340;80;21562;-52
2021/04/11 05:44:15;;;;;;;10.25;5.65;;;;;;;11.15;38.80;101702.60;1712922;83;21280;-52
2021/04/11 05:47:14;;;;;;;10.50;5.42;;;;;;;11.30;38.23;101696.54;1725748;83;21550;-68
2021/04/11 05:49:53;;;;;;;18.02;8.48;;;;;;;11.52;37.81;101700.63;1723724;82;21171;-53
2021/04/11 05:52:39;;;;;;;12.90;5.87;;;;;;;11.74;37.83;101696.75;1716689;83;21522;-54
2021/04/11 05:55:09;;;;;;;34.43;10.70;;;;;;;11.93;36.74;101696.83;1735494;82;21292;-55
2021/04/11 05:57:47;;;;;;;11.28;5.62;;;;;;;12.21;37.17;101697.82;1731614;82;21156;-54
2021/04/11 06:00:23;;;;;;;10.68;5.10;;;;;;;12.42;35.60;101697.39;1735167;82;21767;-68
2021/04/11 06:02:55;;;;;;;11.83;5.65;;;;;;;12.53;36.40;101693.02;1742619;82;21186;-70
2021/04/11 06:05:28;;;;;;;9.40;4.75;;;;;;;12.74;36.40;101697.42;1742912;82;21594;-54
2021/04/11 06:08:14;;;;;;;9.88;5.08;;;;;;;13.00;34.95;101695.64;1729864;82;21174;-69
2021/04/11 06:10:57;;;;;;;10.23;4.95;;;;;;;13.25;35.42;101704.41;1740533;82;21135;-68
2021/04/11 06:13:41;;;;;;;8.18;4.92;;;;;;;13.52;34.19;101706.13;1727668;82;21605;-54
2021/04/11 06:16:15;;;;;;;8.55;4.70;;;;;;;13.73;34.72;101697.66;1736814;82;21531;-70
2021/04/11 06:18:50;;;;;;;8.93;4.78;;;;;;;13.94;34.43;101704.62;1742311;82;21555;-54
2021/04/11 06:21:35;;;;;;;8.28;4.35;;;;;;;14.26;33.79;101706.65;1717233;82;21179;-54
2021/04/11 06:24:33;;;;;;;7.85;5.05;;;;;;;14.62;33.38;101705.94;1714435;82;21181;-50
2021/04/11 06:27:32;;;;;;;8.75;4.15;;;;;;;15.00;32.89;101702.14;1719917;83;21154;-52
2021/04/11 06:30:17;;;;;;;8.33;5.28;;;;;;;15.21;32.49;101703.27;1787858;80;21551;-68
2021/04/11 06:32:59;;;;;;;7.92;4.75;;;;;;;15.36;32.01;101707.52;1780285;79;21154;-53
2021/04/11 06:35:32;;;;;;;6.65;4.10;;;;;;;15.57;31.78;101707.72;1772792;80;21084;-66
2021/04/11 06:38:01;;;;;;;8.10;4.20;;;;;;;15.74;30.31;101707.51;1773939;80;21269;-67
2021/04/11 06:41:02;;;;;;;7.60;4.47;;;;;;;16.05;30.61;101710.67;1720082;83;21233;-54
2021/04/11 06:44:23;;;;;;;6.33;3.70;;;;;;;16.31;30.23;101709.41;1758159;80;21143;-52
2021/04/11 06:47:06;;;;;;;7.55;3.92;;;;;;;16.53;30.71;101711.75;1769223;80;21179;-51
2021/04/11 06:49:59;;;;;;;5.90;4.15;;;;;;;16.72;29.75;101713.65;1787134;80;21131;-67
2021/04/11 06:53:14;;;;;;;6.87;4.20;;;;;;;17.04;28.24;101708.24;1767118;80;21590;-67
2021/04/11 06:56:14;;;;;;;5.83;3.87;;;;;;;17.39;27.95;101716.48;1756078;82;21174;-67
2021/04/11 06:59:09;;;;;;;5.62;3.77;;;;;;;17.73;27.17;101719.78;1756243;82;21192;-67
2021/04/11 07:02:22;;;;;;;5.97;3.98;;;;;;;17.89;26.88;101715.44;1759186;80;21598;-53
2021/04/11 07:05:16;;;;;;;6.00;3.80;;;;;;;17.91;27.51;101710.52;1756318;80;21135;-52
2021/04/11 07:07:56;;;;;;;7.60;4.10;;;;;;;18.62;26.88;101704.47;1742055;81;21176;-53
2021/04/11 07:10:44;;;;;;;6.08;3.95;;;;;;;18.97;25.68;101708.09;1757765;80;21099;-67
2021/04/11 07:13:42;;;;;;;5.50;3.75;;;;;;;19.38;25.53;101702.52;1756116;82;21146;-53
2021/04/11 07:16:52;;;;;;;6.42;3.83;;;;;;;19.24;25.46;101706.91;1755925;81;21143;-53
2021/04/11 07:19:52;;;;;;;5.75;3.58;;;;;;;19.73;23.98;101697.50;1756972;80;21219;-66
2021/04/11 07:23:01;;;;;;;5.58;3.42;;;;;;;19.63;24.39;101693.34;1762429;80;21099;-67
2021/04/11 07:26:12;;;;;;;6.60;3.95;;;;;;;19.78;24.28;101688.00;1761738;81;21143;-67
2021/04/11 07:29:19;;;;;;;6.97;3.72;;;;;;;19.93;23.87;101698.70;1763035;80;21162;-53
2021/04/11 07:31:55;;;;;;;6.30;3.75;;;;;;;20.17;23.71;101700.22;1761712;81;21174;-53
2021/04/11 07:34:48;;;;;;;4.72;3.25;;;;;;;20.29;22.98;101699.84;1761614;81;21633;-67
2021/04/11 07:37:31;;;;;;;7.22;4.22;;;;;;;20.45;23.66;101693.97;1754521;81;21194;-67
2021/04/11 07:40:25;;;;;;;6.70;3.42;;;;;;;20.53;22.71;101689.72;1782923;80;21535;-67
2021/04/11 07:43:19;;;;;;;5.40;3.35;;;;;;;20.60;22.64;101684.11;1792852;80;21817;-67
2021/04/11 07:46:21;;;;;;;6.15;3.35;;;;;;;21.52;22.13;101680.45;1792921;79;21154;-54
2021/04/11 07:49:04;;;;;;;5.28;3.52;;;;;;;21.80;22.45;101679.89;1775003;80;21573;-54
2021/04/11 07:52:17;;;;;;;5.60;3.65;;;;;;;22.01;22.35;101682.19;1792065;79;21171;-67
2021/04/11 07:55:00;;;;;;;5.92;4.00;;;;;;;22.15;20.94;101680.28;1792644;80;21193;-66
2021/04/11 07:57:44;;;;;;;6.67;3.98;;;;;;;22.31;21.67;101677.84;1775395;80;21822;-54
2021/04/11 08:00:55;;;;;;;5.62;3.80;;;;;;;22.38;20.96;101678.00;1781439;80;21653;-54
2021/04/11 08:03:34;;;;;;;7.00;3.72;;;;;;;22.04;21.08;101680.73;1710672;83;21738;-54
2021/04/11 08:06:13;;;;;;;4.65;3.08;;;;;;;22.20;21.20;101673.39;1722211;83;21542;-67
2021/04/11 08:09:04;;;;;;;4.87;3.08;;;;;;;22.64;20.39;101663.13;1689100;83;21131;-66
2021/04/11 08:12:02;;;;;;;4.62;3.02;;;;;;;22.61;21.45;101660.09;1716582;83;21096;-67
2021/04/11 08:15:01;;;;;;;4.87;2.92;;;;;;;22.83;21.46;101664.05;1715683;83;21136;-54
2021/04/11 08:18:01;;;;;;;4.58;3.00;;;;;;;23.02;21.23;101648.00;1714238;83;21168;-67
2021/04/11 08:21:11;;;;;;;4.33;3.08;;;;;;;23.62;20.15;101650.28;1710419;83;21066;-54
2021/04/11 08:24:19;;;;;;;4.28;3.10;;;;;;;23.85;19.46;101644.27;1706467;83;21175;-68
2021/04/11 08:27:10;;;;;;;4.20;2.75;;;;;;;23.74;19.03;101646.99;1766939;80;21123;-54
2021/04/11 08:30:03;;;;;;;5.60;3.10;;;;;;;23.41;19.83;101648.09;1756571;80;21598;-67
2021/04/11 08:33:12;;;;;;;4.30;2.83;;;;;;;23.55;19.84;101645.66;1770007;80;21139;-67
2021/04/11 08:35:59;;;;;;;3.98;2.85;;;;;;;23.74;20.13;101648.33;1773248;80;21119;-54
2021/04/11 08:38:55;;;;;;;5.12;3.12;;;;;;;24.55;19.52;101643.55;1766433;80;21133;-54
2021/04/11 08:41:57;;;;;;;6.55;3.12;;;;;;;24.24;19.63;101634.36;1737609;80;21283;-54
2021/04/11 08:45:02;;;;;;;;;;;;;;;24.29;19.54;101630.47;1766020;80;21281;-54
2021/04/11 08:48:07;;;;;;;5.12;3.42;;;;;;;24.48;19.33;101633.09;1753800;82;20152;-53
2021/04/11 08:50:52;;;;;;;5.45;3.55;;;;;;;24.67;19.26;101622.73;1709045;84;21134;-54
2021/04/11 08:54:02;;;;;;;5.72;3.62;;;;;;;24.87;19.03;101620.83;1770640;80;21130;-66
2021/04/11 08:56:39;;;;;;;9.63;4.03;;;;;;;25.04;19.09;101620.81;1769724;80;21158;-53
2021/04/11 08:59:17;;;;;;;7.10;4.53;;;;;;;25.16;18.68;101620.61;1768281;80;21576;-54
2021/04/11 09:02:17;;;;;;;5.12;3.52;;;;;;;25.19;18.30;101615.52;1767486;80;21583;-66
2021/04/11 09:05:12;;;;;;;5.28;3.70;;;;;;;25.34;17.87;101621.42;1775940;80;21567;-64
2021/04/11 09:07:52;;;;;;;5.72;4.00;;;;;;;25.49;18.34;101614.84;1704764;84;21740;-66
2021/04/11 09:10:51;;;;;;;5.78;4.05;;;;;;;25.56;18.05;101608.15;1760011;80;21123;-54
2021/04/11 09:13:34;;;;;;;7.10;4.42;;;;;;;25.67;18.61;101611.08;1770601;80;21149;-66
2021/04/11 09:16:41;;;;;;;6.35;4.17;;;;;;;25.81;17.76;101596.84;1711667;84;21142;-66
2021/04/11 09:19:44;;;;;;;5.28;4.17;;;;;;;26.14;18.02;101589.57;1765993;80;21157;-54
2021/04/11 09:22:48;;;;;;;5.33;3.40;;;;;;;26.33;18.03;101593.88;1759343;80;21672;-54
2021/04/11 09:25:26;;;;;;;6.72;4.42;;;;;;;26.52;17.96;101585.55;1762054;80;21134;-65
2021/04/11 09:28:18;;;;;;;6.10;4.30;;;;;;;26.69;17.42;101585.85;1768019;80;21123;-54
2021/04/11 09:31:12;;;;;;;6.97;3.87;;;;;;;26.82;17.85;101579.23;1781487;80;21541;-54
2021/04/11 09:34:23;;;;;;;9.88;3.92;;;;;;;27.02;17.38;101579.34;1790684;79;21134;-54
2021/04/11 09:37:09;;;;;;;5.67;3.90;;;;;;;27.10;16.54;101577.02;1711332;83;21122;-54
2021/04/11 09:40:09;;;;;;;5.45;3.75;;;;;;;27.07;15.80;101577.72;1712893;82;21614;-66
2021/04/11 09:43:02;;;;;;;6.23;3.70;;;;;;;27.08;15.78;101564.09;1717179;83;21167;-54
2021/04/11 09:46:12;;;;;;;5.72;4.10;;;;;;;27.17;16.82;101568.03;1741762;82;21806;-53
2021/04/11 09:48:59;;;;;;;7.65;4.37;;;;;;;27.21;15.71;101565.52;1712518;83;21154;-54
2021/04/11 09:51:44;;;;;;;6.67;4.28;;;;;;;27.25;16.33;101562.16;1711599;83;21276;-67
2021/04/11 09:54:37;;;;;;;6.95;3.83;;;;;;;27.41;16.38;101568.28;1714205;83;21169;-66
2021/04/11 09:57:36;;;;;;;5.78;4.37;;;;;;;27.56;15.73;101573.23;1709878;83;21180;-67
2021/04/11 10:00:36;;;;;;;5.28;3.83;;;;;;;27.65;15.82;101569.51;1725326;83;21134;-67
2021/04/11 10:03:35;;;;;;;5.25;3.98;;;;;;;27.85;16.17;101554.66;1725869;82;21199;-65
2021/04/11 10:06:17;;;;;;;5.37;4.22;;;;;;;28.10;16.35;101551.16;1724462;83;21494;-65
2021/04/11 10:09:14;;;;;;;5.92;4.15;;;;;;;28.31;16.02;101547.99;1717178;83;21171;-54
2021/04/11 10:12:25;;;;;;;7.37;4.25;;;;;;;28.40;16.18;101553.25;1727966;83;21128;-54
2021/04/11 10:15:05;;;;;;;6.15;3.45;;;;;;;28.54;16.26;101552.27;1720598;83;21558;-67
2021/04/11 10:18:01;;;;;;;5.45;3.90;;;;;;;28.26;15.41;101548.80;1716839;83;21160;-67
2021/04/11 10:21:15;;;;;;;7.53;4.22;;;;;;;28.62;14.33;101549.42;1724099;83;21156;-54
2021/04/11 10:23:57;;;;;;;6.75;4.33;;;;;;;28.41;14.79;101549.56;1709540;84;21195;-67
2021/04/11 10:26:39;;;;;;;5.03;3.92;;;;;;;28.13;14.49;101550.12;1779095;81;21571;-66
2021/04/11 10:29:21;;;;;;;5.95;4.05;;;;;;;28.27;15.27;101533.78;1810278;77;22182;-65
2021/04/11 10:31:58;;;;;;;4.75;3.30;;;;;;;28.54;15.68;101541.44;1760647;80;21162;-66
2021/04/11 10:34:49;;;;;;;4.80;3.95;;;;;;;28.83;15.84;101541.27;1728653;83;21318;-54
2021/04/11 10:37:39;;;;;;;5.40;4.00;;;;;;;29.11;15.71;101531.13;1728699;83;21145;-66
2021/04/11 10:40:29;;;;;;;5.85;3.60;;;;;;;29.31;15.29;101530.54;1724731;83;21177;-66
2021/04/11 10:43:33;;;;;;;7.12;4.12;;;;;;;29.46;15.20;101538.53;1692230;84;21165;-54
2021/04/11 10:46:14;;;;;;;5.12;3.52;;;;;;;29.37;14.75;101531.45;1726025;83;21159;-53
2021/04/11 10:49:18;;;;;;;8.50;4.30;;;;;;;29.36;15.11;101531.03;1725366;83;21159;-54
2021/04/11 10:52:19;;;;;;;6.90;4.20;;;;;;;29.49;15.57;101531.52;1725078;83;21147;-54
2021/04/11 10:55:16;;;;;;;6.87;4.03;;;;;;;29.76;15.04;101528.58;1624605;87;21153;-66
2021/04/11 10:58:10;;;;;;;6.75;4.08;;;;;;;29.88;14.88;101517.27;1683531;84;21235;-66
2021/04/11 11:00:49;;;;;;;6.95;4.17;;;;;;;30.04;14.15;101513.42;1706069;84;21131;-64
2021/04/11 11:04:07;;;;;;;6.03;4.00;;;;;;;30.09;14.16;101513.42;1706576;82;21151;-66
2021/04/11 11:06:55;;;;;;;5.62;3.90;;;;;;;30.31;14.12;101506.80;1717244;83;21178;-54
2021/04/11 11:09:40;;;;;;;6.58;3.85;;;;;;;30.55;14.34;101498.09;1716515;82;21184;-67
2021/04/11 11:12:47;;;;;;;10.23;4.70;;;;;;;30.49;13.95;101496.33;1715653;83;21132;-62
2021/04/11 11:15:36;;;;;;;5.42;3.72;;;;;;;30.51;13.37;101494.36;1713392;83;21706;-67
2021/04/11 11:18:30;;;;;;;6.30;4.10;;;;;;;30.50;13.42;101487.20;1698520;82;21240;-55
2021/04/11 11:21:40;;;;;;;7.80;3.98;;;;;;;30.55;13.60;101488.58;1691284;85;21622;-53
2021/04/11 11:24:42;;;;;;;;;;;;;;;30.74;13.83;101483.55;1694224;83;21213;-65
2021/04/11 11:27:48;;;;;;;4.92;3.35;;;;;;;30.97;13.79;101481.16;1710763;82;20167;-54
2021/04/11 11:30:55;;;;;;;4.25;3.45;;;;;;;31.14;13.80;101481.63;1754293;82;21142;-66
2021/04/11 11:34:09;;;;;;;4.50;3.37;;;;;;;31.27;13.68;101470.63;1754174;82;21150;-55
2021/04/11 11:37:03;;;;;;;5.50;3.72;;;;;;;31.32;13.81;101464.31;1747275;81;21169;-66
2021/04/11 11:40:09;;;;;;;5.92;4.03;;;;;;;31.51;13.64;101460.05;1748399;81;21112;-65
2021/04/11 11:43:17;;;;;;;5.30;3.90;;;;;;;31.59;13.37;101461.59;1748139;81;21119;-66
2021/04/11 11:46:32;;;;;;;6.75;3.70;;;;;;;31.10;12.76;101457.05;1741825;81;21128;-56
2021/04/11 11:49:18;;;;;;;5.00;3.70;;;;;;;31.10;12.76;101457.05;1748324;81;21342;-66
2021/04/11 11:52:01;;;;;;;4.53;3.77;;;;;;;31.17;12.98;101440.63;1748443;81;21144;-56
2021/04/11 11:54:50;;;;;;;10.78;4.12;;;;;;;31.17;12.98;101440.63;1747153;81;21574;-55
2021/04/11 11:57:51;;;;;;;6.08;3.70;;;;;;;30.97;12.87;101448.54;1853120;77;22151;-65
2021/04/11 12:00:26;;;;;;;6.47;3.80;;;;;;;31.01;13.85;101450.02;1793136;80;21122;-54
2021/04/11 12:03:20;;;;;;;5.28;3.12;;;;;;;31.01;13.85;101450.02;1791129;80;21550;-54
2021/04/11 12:06:18;;;;;;;6.10;3.25;;;;;;;30.68;12.55;101439.58;1763808;80;21150;-66
2021/04/11 12:09:13;;;;;;;5.42;3.70;;;;;;;30.96;12.77;101440.02;1744378;81;21192;-67
2021/04/11 12:12:04;;;;;;;4.85;3.40;;;;;;;30.78;12.33;101437.47;1722001;83;21154;-54
2021/04/11 12:14:52;;;;;;;4.90;3.10;;;;;;;30.36;12.68;101439.42;1739222;81;21304;-53
2021/04/11 12:17:35;;;;;;;4.17;3.17;;;;;;;30.17;13.54;101443.63;1755200;81;21142;-67
2021/04/11 12:20:34;;;;;;;5.58;3.52;;;;;;;29.91;13.13;101431.56;1738357;82;21587;-64
2021/04/11 12:23:33;;;;;;;4.65;3.12;;;;;;;29.79;13.11;101426.61;1721706;81;21184;-65
2021/04/11 12:26:09;;;;;;;35.90;5.28;;;;;;;29.67;12.18;101420.77;1728048;82;21119;-54
2021/04/11 12:28:46;;;;;;;7.00;4.17;;;;;;;29.53;13.15;101417.77;1807959;77;22199;-53
2021/04/11 12:31:22;;;;;;;76.28;62.58;;;;;;;29.58;13.78;101430.48;1722301;83;21152;-53
2021/04/11 12:34:15;;;;;;;180.25;145.50;;;;;;;29.78;13.95;101431.66;1727107;82;21342;-54
2021/04/11 12:36:53;;;;;;;38.38;33.78;;;;;;;29.98;13.80;101419.78;1739125;81;21492;-67
2021/04/11 12:39:29;;;;;;;742.67;86.02;;;;;;;30.27;14.02;101423.38;1672133;82;21139;-53
2021/04/11 12:42:34;;;;;;;35.83;14.13;;;;;;;30.49;13.50;101419.81;1720765;82;21128;-54
2021/04/11 12:45:17;;;;;;;24.40;13.22;;;;;;;30.70;13.43;101416.34;1728060;82;21575;-55
2021/04/11 12:48:02;;;;;;;33.28;12.40;;;;;;;30.85;13.70;101415.09;1722880;82;21609;-54
2021/04/11 12:50:38;;;;;;;37.75;26.82;;;;;;;30.73;13.11;101416.61;1726425;82;21139;-66